createdAt,value
2017-05-03T00:02:01.230Z,7.96
2017-05-03T00:04:28.597Z,8.42
2017-05-03T00:06:55.878Z,8.52
2017-05-03T00:09:23.198Z,9.72
2017-05-03T00:11:50.553Z,9.20
2017-05-03T00:14:17.905Z,8.90
2017-05-03T00:16:45.199Z,8.86
2017-05-03T00:19:12.582Z,9.66
2017-05-03T00:21:39.478Z,9.46
2017-05-03T00:24:06.835Z,9.14
2017-05-03T00:26:34.248Z,9.72
2017-05-03T00:29:01.634Z,9.56
2017-05-03T00:31:28.990Z,10.28
2017-05-03T00:33:56.348Z,9.42
2017-05-03T00:36:23.697Z,9.72
2017-05-03T00:38:50.987Z,9.46
2017-05-03T00:41:18.419Z,10.00
2017-05-03T00:43:45.766Z,8.98
2017-05-03T00:46:13.075Z,10.44
2017-05-03T00:48:40.785Z,11.10
2017-05-03T00:51:08.071Z,9.92
2017-05-03T00:53:35.395Z,9.00
2017-05-03T00:56:02.728Z,10.04
2017-05-03T00:58:30.010Z,11.18
2017-05-03T01:00:57.362Z,10.86
2017-05-03T01:03:24.686Z,11.48
2017-05-03T01:05:51.974Z,11.54
2017-05-03T01:08:19.327Z,12.54
2017-05-03T01:10:46.689Z,12.58
2017-05-03T01:13:13.980Z,11.52
2017-05-03T01:15:41.705Z,11.76
2017-05-03T01:18:09.058Z,11.40
2017-05-03T01:20:35.955Z,12.22
2017-05-03T01:23:03.250Z,11.60
2017-05-03T01:25:30.614Z,11.86
2017-05-03T01:27:57.501Z,12.88
2017-05-03T01:30:25.159Z,12.24
2017-05-03T01:32:52.484Z,12.44
2017-05-03T01:35:19.852Z,13.86
2017-05-03T01:37:47.135Z,11.96
2017-05-03T01:40:14.842Z,12.92
2017-05-03T01:42:42.214Z,12.48
2017-05-03T01:45:09.505Z,12.24
2017-05-03T01:47:37.210Z,12.48
2017-05-03T01:50:04.507Z,11.80
2017-05-03T01:52:31.426Z,13.46
2017-05-03T01:54:58.761Z,13.80
2017-05-03T01:57:26.154Z,13.18
2017-05-03T01:59:53.447Z,12.36
2017-05-03T02:02:20.787Z,12.14
2017-05-03T02:04:47.681Z,13.02
2017-05-03T02:07:14.998Z,13.38
2017-05-03T02:09:42.690Z,14.34
2017-05-03T02:12:10.004Z,14.12
2017-05-03T02:14:37.292Z,14.48
2017-05-03T02:17:04.677Z,13.52
2017-05-03T02:19:32.041Z,13.66
2017-05-03T02:21:59.394Z,13.74
2017-05-03T02:24:26.446Z,13.00
2017-05-03T02:26:53.746Z,12.52
2017-05-03T02:29:21.405Z,13.12
2017-05-03T02:31:49.138Z,13.50
2017-05-03T02:34:16.473Z,12.44
2017-05-03T02:36:43.362Z,14.52
2017-05-03T02:39:10.782Z,12.54
2017-05-03T02:41:38.138Z,14.26
2017-05-03T02:44:05.490Z,13.58
2017-05-03T02:46:32.853Z,12.78
2017-05-03T02:49:00.150Z,13.04
2017-05-03T02:51:27.802Z,13.20
2017-05-03T02:53:55.135Z,13.72
2017-05-03T02:56:22.421Z,13.44
2017-05-03T02:58:49.306Z,13.76
2017-05-03T03:01:16.634Z,13.32
2017-05-03T03:03:44.286Z,13.46
2017-05-03T03:06:11.186Z,13.74
2017-05-03T03:08:38.538Z,12.98
2017-05-03T03:11:05.817Z,14.16
2017-05-03T03:13:32.809Z,13.20
2017-05-03T03:16:00.138Z,14.76
2017-05-03T03:18:27.423Z,14.34
2017-05-03T03:20:54.706Z,13.36
2017-05-03T03:23:22.045Z,14.60
2017-05-03T03:25:49.349Z,13.98
2017-05-03T03:28:16.332Z,14.50
2017-05-03T03:30:43.679Z,13.38
2017-05-03T03:33:11.042Z,13.14
2017-05-03T03:35:37.934Z,11.50
2017-05-03T03:38:05.637Z,13.16
2017-05-03T03:40:32.923Z,12.68
2017-05-03T03:43:00.210Z,13.40
2017-05-03T03:45:27.906Z,14.02
2017-05-03T03:47:55.279Z,13.54
2017-05-03T03:50:22.981Z,12.38
2017-05-03T03:52:50.678Z,13.36
2017-05-03T03:55:18.061Z,12.50
2017-05-03T03:57:45.346Z,12.12
2017-05-03T04:00:12.686Z,11.90
2017-05-03T04:02:39.986Z,11.74
2017-05-03T04:05:07.381Z,11.80
2017-05-03T04:07:34.695Z,11.18
2017-05-03T04:10:02.409Z,11.92
2017-05-03T04:12:29.450Z,11.18
2017-05-03T04:14:56.811Z,11.18
2017-05-03T04:17:24.109Z,11.60
2017-05-03T04:19:51.830Z,11.02
2017-05-03T04:22:19.122Z,11.82
2017-05-03T04:24:46.845Z,10.92
2017-05-03T04:27:14.617Z,11.02
2017-05-03T04:29:41.915Z,11.82
2017-05-03T04:32:09.629Z,11.10
2017-05-03T04:34:36.963Z,11.64
2017-05-03T04:37:03.849Z,11.40
2017-05-03T04:39:31.138Z,13.12
2017-05-03T04:41:58.071Z,11.72
2017-05-03T04:44:25.798Z,11.92
2017-05-03T04:46:53.095Z,11.38
2017-05-03T04:49:20.803Z,11.56
2017-05-03T04:51:47.694Z,10.98
2017-05-03T04:54:14.982Z,12.10
2017-05-03T04:56:42.338Z,11.98
2017-05-03T04:59:09.621Z,11.54
2017-05-03T05:01:36.905Z,13.08
2017-05-03T05:04:04.233Z,14.00
2017-05-03T05:06:31.590Z,13.64
2017-05-03T05:08:58.873Z,13.06
2017-05-03T05:11:26.302Z,14.56
2017-05-03T05:13:53.594Z,13.34
2017-05-03T05:16:21.259Z,15.30
2017-05-03T05:18:48.986Z,12.16
2017-05-03T05:21:16.276Z,13.60
2017-05-03T05:23:43.166Z,14.70
2017-05-03T05:26:10.522Z,14.48
2017-05-03T05:28:37.891Z,14.84
2017-05-03T05:31:05.178Z,15.26
2017-05-03T05:33:32.506Z,17.10
2017-05-03T05:35:59.415Z,16.86
2017-05-03T05:38:26.698Z,17.84
2017-05-03T05:40:54.037Z,19.14
2017-05-03T05:43:21.380Z,17.58
2017-05-03T05:45:48.739Z,17.12
2017-05-03T05:48:16.077Z,19.32
2017-05-03T05:50:43.362Z,20.18
2017-05-03T05:53:11.518Z,20.16
2017-05-03T05:55:38.846Z,20.56
2017-05-03T05:58:06.225Z,21.26
2017-05-03T06:00:33.586Z,19.74
2017-05-03T06:03:00.941Z,20.20
2017-05-03T06:05:28.301Z,22.50
2017-05-03T06:07:55.658Z,21.42
2017-05-03T06:10:23.011Z,23.02
2017-05-03T06:12:50.295Z,26.22
2017-05-03T06:15:17.585Z,25.82
2017-05-03T06:17:44.975Z,24.62
2017-05-03T06:20:12.254Z,27.26
2017-05-03T06:22:39.590Z,24.10
2017-05-03T06:25:06.946Z,26.46
2017-05-03T06:27:34.297Z,28.56
2017-05-03T06:30:01.581Z,26.36
2017-05-03T06:32:28.599Z,27.18
2017-05-03T06:34:55.962Z,25.00
2017-05-03T06:37:23.251Z,28.56
2017-05-03T06:39:50.270Z,28.02
2017-05-03T06:42:17.559Z,27.58
2017-05-03T06:44:44.870Z,27.32
2017-05-03T06:47:12.201Z,25.32
2017-05-03T06:49:39.550Z,26.38
2017-05-03T06:52:06.838Z,25.86
2017-05-03T06:54:34.185Z,26.50
2017-05-03T06:57:01.546Z,24.20
2017-05-03T06:59:28.898Z,24.22
2017-05-03T07:01:56.232Z,21.28
2017-05-03T07:04:23.615Z,22.82
2017-05-03T07:06:50.962Z,21.26
2017-05-03T07:09:18.294Z,22.28
2017-05-03T07:11:45.678Z,21.42
2017-05-03T07:14:13.073Z,22.94
2017-05-03T07:16:40.804Z,20.16
2017-05-03T07:19:08.094Z,19.74
2017-05-03T07:21:36.086Z,20.18
2017-05-03T07:24:03.282Z,22.04
2017-05-03T07:26:30.581Z,22.66
2017-05-03T07:28:58.294Z,22.80
2017-05-03T07:31:25.665Z,22.50
2017-05-03T07:33:53.011Z,23.14
2017-05-03T07:36:20.303Z,22.76
2017-05-03T07:38:48.039Z,23.60
2017-05-03T07:41:15.381Z,25.28
2017-05-03T07:43:42.666Z,22.76
2017-05-03T07:46:10.194Z,25.24
2017-05-03T07:48:37.526Z,24.14
2017-05-03T07:51:04.905Z,25.84
2017-05-03T07:53:32.212Z,25.22
2017-05-03T07:55:59.917Z,22.86
2017-05-03T07:58:27.202Z,22.80
2017-05-03T08:00:54.537Z,22.86
2017-05-03T08:03:21.865Z,23.16
2017-05-03T08:05:49.249Z,21.74
2017-05-03T08:08:16.530Z,22.54
2017-05-03T08:10:43.958Z,24.24
2017-05-03T08:13:10.905Z,24.74
2017-05-03T08:15:37.794Z,24.58
2017-05-03T08:18:05.118Z,23.74
2017-05-03T08:20:32.404Z,26.60
2017-05-03T08:23:00.165Z,23.14
2017-05-03T08:25:27.861Z,21.84
2017-05-03T08:27:55.247Z,23.62
2017-05-03T08:30:22.540Z,23.98
2017-05-03T08:32:50.263Z,22.78
2017-05-03T08:35:17.210Z,21.58
2017-05-03T08:37:45.015Z,24.46
2017-05-03T08:40:12.433Z,25.70
2017-05-03T08:42:39.713Z,26.32
2017-05-03T08:45:07.004Z,23.98
2017-05-03T08:47:34.335Z,25.66
2017-05-03T08:50:01.618Z,28.46
2017-05-03T08:52:28.518Z,27.00
2017-05-03T08:54:55.847Z,24.08
2017-05-03T08:57:23.194Z,24.84
2017-05-03T08:59:51.283Z,23.22
2017-05-03T09:02:18.635Z,22.58
2017-05-03T09:04:46.002Z,22.40
2017-05-03T09:07:13.354Z,21.10
2017-05-03T09:09:40.693Z,22.14
2017-05-03T09:12:07.970Z,21.20
2017-05-03T09:14:35.253Z,21.78
2017-05-03T09:17:02.183Z,21.02
2017-05-03T09:19:29.514Z,20.84
2017-05-03T09:21:56.796Z,18.94
2017-05-03T09:24:23.755Z,19.34
2017-05-03T09:26:51.038Z,20.82
2017-05-03T09:29:18.392Z,18.46
2017-05-03T09:31:45.290Z,20.12
2017-05-03T09:34:12.766Z,18.90
2017-05-03T09:36:39.706Z,18.68
2017-05-03T09:39:06.987Z,16.66
2017-05-03T09:41:34.265Z,18.20
2017-05-03T09:44:02.024Z,20.02
2017-05-03T09:46:29.394Z,18.40
2017-05-03T09:48:56.344Z,17.32
2017-05-03T09:51:23.685Z,16.68
2017-05-03T09:53:51.055Z,16.48
2017-05-03T09:56:18.345Z,16.46
2017-05-03T09:58:45.666Z,15.58
2017-05-03T10:01:12.948Z,16.26
2017-05-03T10:03:40.230Z,16.02
2017-05-03T10:06:07.154Z,15.50
2017-05-03T10:08:34.483Z,13.68
2017-05-03T10:11:01.827Z,14.50
2017-05-03T10:13:29.165Z,12.26
2017-05-03T10:15:56.457Z,12.80
2017-05-03T10:18:23.833Z,12.18
2017-05-03T10:20:50.761Z,11.10
2017-05-03T10:23:18.097Z,11.76
2017-05-03T10:25:45.369Z,11.44
2017-05-03T10:28:12.806Z,12.30
2017-05-03T10:30:40.165Z,14.02
2017-05-03T10:33:07.441Z,13.06
2017-05-03T10:35:34.778Z,12.66
2017-05-03T10:38:02.063Z,11.00
2017-05-03T10:40:29.350Z,12.10
2017-05-03T10:42:56.345Z,11.62
2017-05-03T10:45:23.625Z,13.76
2017-05-03T10:47:50.551Z,13.44
2017-05-03T10:50:17.833Z,11.50
2017-05-03T10:52:44.756Z,15.08
2017-05-03T10:55:12.086Z,12.00
2017-05-03T10:57:39.369Z,13.02
2017-05-03T11:00:06.705Z,13.04
2017-05-03T11:02:34.088Z,10.52
2017-05-03T11:05:01.367Z,12.02
2017-05-03T11:07:28.350Z,12.78
2017-05-03T11:09:55.665Z,10.66
2017-05-03T11:12:23.318Z,10.34
2017-05-03T11:14:51.021Z,9.98
2017-05-03T11:17:18.390Z,9.90
2017-05-03T11:19:45.747Z,10.88
2017-05-03T11:22:13.140Z,10.20
2017-05-03T11:24:40.422Z,9.16
2017-05-03T11:27:07.812Z,9.84
2017-05-03T11:29:35.162Z,10.70
2017-05-03T11:32:02.525Z,10.98
2017-05-03T11:34:29.814Z,10.96
2017-05-03T11:36:57.153Z,9.52
2017-05-03T11:39:24.441Z,10.06
2017-05-03T11:41:51.327Z,9.00
2017-05-03T11:44:18.284Z,10.12
2017-05-03T11:46:45.169Z,10.84
2017-05-03T11:49:12.082Z,10.12
2017-05-03T11:51:39.777Z,9.66
2017-05-03T11:54:07.141Z,10.18
2017-05-03T11:56:34.423Z,11.42
2017-05-03T11:59:01.955Z,13.24
2017-05-03T12:01:29.247Z,13.70
2017-05-03T12:03:56.528Z,12.26
2017-05-03T12:06:23.881Z,12.66
2017-05-03T12:08:51.167Z,13.40
2017-05-03T12:11:18.169Z,14.24
2017-05-03T12:13:45.533Z,12.48
2017-05-03T12:16:12.472Z,12.92
2017-05-03T12:18:39.749Z,12.58
2017-05-03T12:21:06.765Z,12.34
2017-05-03T12:23:34.046Z,12.48
2017-05-03T12:26:01.330Z,11.80
2017-05-03T12:28:29.023Z,12.80
2017-05-03T12:30:56.305Z,11.64
2017-05-03T12:33:23.593Z,11.48
2017-05-03T12:35:50.529Z,11.98
2017-05-03T12:38:17.815Z,10.42
2017-05-03T12:40:45.201Z,11.66
2017-05-03T12:43:12.563Z,11.06
2017-05-03T12:45:39.914Z,10.86
2017-05-03T12:48:07.202Z,9.34
2017-05-03T12:50:34.624Z,8.40
2017-05-03T12:53:01.909Z,7.22
2017-05-03T12:55:29.188Z,7.30
2017-05-03T12:57:56.898Z,7.28
2017-05-03T13:00:24.258Z,6.20
2017-05-03T13:02:51.540Z,5.86
2017-05-03T13:05:18.857Z,5.96
2017-05-03T13:07:46.219Z,5.42
2017-05-03T13:10:13.581Z,5.10
2017-05-03T13:12:40.943Z,5.20
2017-05-03T13:15:07.822Z,5.72
2017-05-03T13:17:35.113Z,5.36
2017-05-03T13:20:02.437Z,4.88
2017-05-03T13:22:30.125Z,4.98
2017-05-03T13:24:57.417Z,4.60
2017-05-03T13:27:24.754Z,5.04
2017-05-03T13:29:52.037Z,3.82
2017-05-03T13:32:19.322Z,3.80
2017-05-03T13:34:47.033Z,3.84
2017-05-03T13:37:14.398Z,2.98
2017-05-03T13:39:41.673Z,3.14
2017-05-03T13:42:09.004Z,2.90
2017-05-03T13:44:35.897Z,2.70
2017-05-03T13:47:03.618Z,2.80
2017-05-03T13:49:30.969Z,3.12
2017-05-03T13:51:58.258Z,2.36
2017-05-03T13:54:25.563Z,2.78
2017-05-03T13:56:52.906Z,3.14
2017-05-03T13:59:20.191Z,2.62
2017-05-03T14:01:47.474Z,2.78
2017-05-03T14:04:14.924Z,3.68
2017-05-03T14:06:42.299Z,3.64
2017-05-03T14:09:09.964Z,4.24
2017-05-03T14:11:37.340Z,5.14
2017-05-03T14:14:04.220Z,5.82
2017-05-03T14:16:31.502Z,5.26
2017-05-03T14:18:58.843Z,6.18
2017-05-03T14:21:26.187Z,5.58
2017-05-03T14:23:53.480Z,7.06
2017-05-03T14:26:20.810Z,6.94
2017-05-03T14:28:48.170Z,7.70
2017-05-03T14:31:15.452Z,7.72
2017-05-03T14:33:43.146Z,7.92
2017-05-03T14:36:10.546Z,8.58
2017-05-03T14:38:37.830Z,7.72
2017-05-03T14:41:05.518Z,7.42
2017-05-03T14:43:32.940Z,7.98
2017-05-03T14:46:00.261Z,7.78
2017-05-03T14:48:27.579Z,7.90
2017-05-03T14:50:57.153Z,7.84
2017-05-03T14:53:24.585Z,9.30
2017-05-03T14:55:51.929Z,8.64
2017-05-03T14:58:19.216Z,8.70
2017-05-03T15:00:46.127Z,8.88
2017-05-03T15:03:13.485Z,8.06
2017-05-03T15:05:40.763Z,8.26
2017-05-03T15:08:08.041Z,8.24
2017-05-03T15:10:35.041Z,7.42
2017-05-03T15:13:02.440Z,7.82
2017-05-03T15:15:29.321Z,6.02
2017-05-03T15:17:56.703Z,6.22
2017-05-03T15:20:23.982Z,6.22
2017-05-03T15:22:50.883Z,4.84
2017-05-03T15:25:18.523Z,4.68
2017-05-03T15:27:45.921Z,4.76
2017-05-03T15:30:13.198Z,4.42
2017-05-03T15:32:40.610Z,4.00
2017-05-03T15:35:07.888Z,3.56
2017-05-03T15:37:35.162Z,3.60
2017-05-03T15:40:02.578Z,3.32
2017-05-03T15:42:29.933Z,2.80
2017-05-03T15:44:57.289Z,3.66
2017-05-03T15:47:24.682Z,3.22
2017-05-03T15:49:51.962Z,2.90
2017-05-03T15:52:19.616Z,2.84
2017-05-03T15:54:47.313Z,3.02
2017-05-03T15:57:14.693Z,2.50
2017-05-03T15:59:41.970Z,2.52
2017-05-03T16:02:09.287Z,2.62
2017-05-03T16:04:36.568Z,2.54
2017-05-03T16:07:03.902Z,2.28
2017-05-03T16:09:31.262Z,2.72
2017-05-03T16:11:58.537Z,3.32
2017-05-03T16:14:25.871Z,2.72
2017-05-03T16:16:53.242Z,3.22
2017-05-03T16:19:20.581Z,3.36
2017-05-03T16:21:47.853Z,3.22
2017-05-03T16:24:15.179Z,3.08
2017-05-03T16:26:42.062Z,3.50
2017-05-03T16:29:09.430Z,3.28
2017-05-03T16:31:36.769Z,3.48
2017-05-03T16:34:04.143Z,2.30
2017-05-03T16:36:31.422Z,3.08
2017-05-03T16:38:58.766Z,2.74
2017-05-03T16:41:25.654Z,2.58
2017-05-03T16:43:53.052Z,2.98
2017-05-03T16:46:20.469Z,3.00
2017-05-03T16:48:47.354Z,2.96
2017-05-03T16:51:14.637Z,2.80
2017-05-03T16:53:41.561Z,2.00
2017-05-03T16:56:09.226Z,1.80
2017-05-03T16:58:36.983Z,2.20
2017-05-03T17:01:04.420Z,2.04
2017-05-03T17:03:31.758Z,2.04
2017-05-03T17:05:59.053Z,2.08
2017-05-03T17:08:26.475Z,2.10
2017-05-03T17:10:53.762Z,1.90
2017-05-03T17:13:21.045Z,2.12
2017-05-03T17:15:48.366Z,2.04
2017-05-03T17:18:15.250Z,2.04
2017-05-03T17:20:42.526Z,2.12
2017-05-03T17:23:09.956Z,2.42
2017-05-03T17:25:37.250Z,2.00
2017-05-03T17:28:04.565Z,2.32
2017-05-03T17:30:31.493Z,2.38
2017-05-03T17:32:58.968Z,2.16
2017-05-03T17:35:26.325Z,2.24
2017-05-03T17:37:53.723Z,2.86
2017-05-03T17:40:20.996Z,2.30
2017-05-03T17:42:48.659Z,2.22
2017-05-03T17:45:15.590Z,2.10
2017-05-03T17:47:43.249Z,1.90
2017-05-03T17:50:10.525Z,2.78
2017-05-03T17:52:37.849Z,2.10
2017-05-03T17:55:05.130Z,1.60
2017-05-03T17:57:32.819Z,1.66
2017-05-03T17:59:59.747Z,1.74
2017-05-03T18:02:27.042Z,1.50
2017-05-03T18:04:54.396Z,1.74
2017-05-03T18:07:21.826Z,1.38
2017-05-03T18:09:49.154Z,2.02
2017-05-03T18:12:16.822Z,1.60
2017-05-03T18:14:43.750Z,1.58
2017-05-03T18:17:11.067Z,1.56
2017-05-03T18:19:38.023Z,1.60
2017-05-03T18:22:05.346Z,2.10
2017-05-03T18:24:32.728Z,1.80
2017-05-03T18:27:00.082Z,1.72
2017-05-03T18:29:27.015Z,2.24
2017-05-03T18:31:54.290Z,1.82
2017-05-03T18:34:21.617Z,1.82
2017-05-03T18:36:48.976Z,1.68
2017-05-03T18:39:16.322Z,1.80
2017-05-03T18:41:43.660Z,1.60
2017-05-03T18:44:11.045Z,2.00
2017-05-03T18:46:38.326Z,2.20
2017-05-03T18:49:05.661Z,2.38
2017-05-03T18:51:32.944Z,2.52
2017-05-03T18:54:00.257Z,2.22
2017-05-03T18:56:27.588Z,2.06
2017-05-03T18:58:54.867Z,2.40
2017-05-03T19:01:21.753Z,2.20
2017-05-03T19:03:49.201Z,2.50
2017-05-03T19:06:16.534Z,2.82
2017-05-03T19:08:43.459Z,2.28
2017-05-03T19:11:10.869Z,2.40
2017-05-03T19:13:38.601Z,3.00
2017-05-03T19:16:05.883Z,3.28
2017-05-03T19:18:33.302Z,2.76
2017-05-03T19:21:00.595Z,2.48
2017-05-03T19:23:27.917Z,3.02
2017-05-03T19:25:55.293Z,3.28
2017-05-03T19:28:22.574Z,3.56
2017-05-03T19:30:50.223Z,3.14
2017-05-03T19:33:17.650Z,3.98
2017-05-03T19:35:44.930Z,3.24
2017-05-03T19:38:12.257Z,3.54
2017-05-03T19:40:39.214Z,3.22
2017-05-03T19:43:06.563Z,3.42
2017-05-03T19:45:33.851Z,3.08
2017-05-03T19:48:01.189Z,3.50
2017-05-03T19:50:28.465Z,3.46
2017-05-03T19:52:56.140Z,3.58
2017-05-03T19:55:23.961Z,3.00
2017-05-03T19:57:51.235Z,3.18
2017-05-03T20:00:18.518Z,4.08
2017-05-03T20:02:46.210Z,3.78
2017-05-03T20:05:13.492Z,3.12
2017-05-03T20:07:40.778Z,3.52
2017-05-03T20:10:08.522Z,3.50
2017-05-03T20:12:35.409Z,3.66
2017-05-03T20:15:02.700Z,3.80
2017-05-03T20:17:29.650Z,3.90
2017-05-03T20:19:57.003Z,3.70
2017-05-03T20:22:24.294Z,3.12
2017-05-03T20:24:51.667Z,3.62
2017-05-03T20:27:18.961Z,3.34
2017-05-03T20:29:46.296Z,3.40
2017-05-03T20:32:13.627Z,3.38
2017-05-03T20:34:40.910Z,3.68
2017-05-03T20:37:08.190Z,3.62
2017-05-03T20:39:35.518Z,3.98
2017-05-03T20:42:02.801Z,3.90
2017-05-03T20:44:30.073Z,3.82
2017-05-03T20:46:57.393Z,3.44
2017-05-03T20:49:24.759Z,3.82
2017-05-03T20:51:52.110Z,3.70
2017-05-03T20:54:19.655Z,4.54
2017-05-03T20:56:47.375Z,3.90
2017-05-03T20:59:14.714Z,4.56
2017-05-03T21:01:42.065Z,4.76
2017-05-03T21:04:09.345Z,4.06
2017-05-03T21:06:36.765Z,4.68
2017-05-03T21:09:04.129Z,4.70
2017-05-03T21:11:31.482Z,4.18
2017-05-03T21:13:58.827Z,4.70
2017-05-03T21:16:26.566Z,4.82
2017-05-03T21:18:53.849Z,4.42
2017-05-03T21:21:21.561Z,4.46
2017-05-03T21:23:48.914Z,4.38
2017-05-03T21:26:16.273Z,4.58
2017-05-03T21:28:43.569Z,4.22
2017-05-03T21:31:10.497Z,5.48
2017-05-03T21:33:37.778Z,5.90
2017-05-03T21:36:05.050Z,4.82
2017-05-03T21:38:32.071Z,5.28
2017-05-03T21:40:59.122Z,4.64
2017-05-03T21:43:26.415Z,5.02
2017-05-03T21:45:53.829Z,5.22
2017-05-03T21:48:21.102Z,5.10
2017-05-03T21:50:48.381Z,14.58
2017-05-03T21:53:15.766Z,6.00
2017-05-03T21:55:43.143Z,6.08
2017-05-03T21:58:10.501Z,5.52
2017-05-03T22:00:37.984Z,6.28
2017-05-03T22:03:04.893Z,5.52
2017-05-03T22:05:32.170Z,5.74
2017-05-03T22:07:59.489Z,6.04
2017-05-03T22:10:26.369Z,5.90
2017-05-03T22:12:53.645Z,6.90
2017-05-03T22:15:21.341Z,5.54
2017-05-03T22:17:48.227Z,5.86
2017-05-03T22:20:15.561Z,6.88
2017-05-03T22:22:43.022Z,5.88
2017-05-03T22:25:10.304Z,7.50
2017-05-03T22:27:37.643Z,6.58
2017-05-03T22:30:04.969Z,6.36
2017-05-03T22:32:32.251Z,6.66
2017-05-03T22:34:59.605Z,5.78
2017-05-03T22:37:26.972Z,5.74
2017-05-03T22:39:54.421Z,6.88
2017-05-03T22:42:21.709Z,6.48
2017-05-03T22:44:49.141Z,6.26
2017-05-03T22:47:16.515Z,7.40
2017-05-03T22:49:43.806Z,6.06
2017-05-03T22:52:11.611Z,6.02
2017-05-03T22:54:38.965Z,9.16
2017-05-03T22:57:06.323Z,8.10
2017-05-03T22:59:33.990Z,7.04
2017-05-03T23:02:01.351Z,6.62
2017-05-03T23:04:28.638Z,7.16
2017-05-03T23:06:55.962Z,8.16
2017-05-03T23:09:23.311Z,8.44
2017-05-03T23:11:50.675Z,8.60
2017-05-03T23:14:18.126Z,10.08
2017-05-03T23:16:45.482Z,10.10
2017-05-03T23:19:12.814Z,8.82
2017-05-03T23:21:39.698Z,10.18
2017-05-03T23:24:07.045Z,11.08
2017-05-03T23:26:34.366Z,9.10
2017-05-03T23:29:01.333Z,9.64
2017-05-03T23:31:28.613Z,8.98
2017-05-03T23:33:55.950Z,11.26
2017-05-03T23:36:23.321Z,9.50
2017-05-03T23:38:50.614Z,10.44
2017-05-03T23:41:18.301Z,9.76
2017-05-03T23:43:45.596Z,10.84
2017-05-03T23:46:12.873Z,11.42
2017-05-03T23:48:40.595Z,10.68
2017-05-03T23:51:08.196Z,10.48
2017-05-03T23:53:35.513Z,10.90
2017-05-03T23:56:02.557Z,10.64
2017-05-03T23:58:29.865Z,11.68
